sensor_id;sensor_type;location;lat;lon;timestamp;pressure;altitude;pressure_sealevel;temperature;humidity
20909;BME280;10614;53.198;6.570;2023-03-04T00:01:17;102601.84;;;5.45;100.00
20909;BME280;10614;53.198;6.570;2023-03-04T00:03:18;102598.41;;;5.46;100.00
20909;BME280;10614;53.198;6.570;2023-03-04T00:05:20;102601.00;;;5.46;100.00
20909;BME280;10614;53.198;6.570;2023-03-04T00:07:22;102595.75;;;5.45;100.00
20909;BME280;10614;53.198;6.570;2023-03-04T00:09:24;102596.66;;;5.47;100.00
20909;BME280;10614;53.198;6.570;2023-03-04T00:11:26;102587.94;;;5.46;100.00
20909;BME280;10614;53.198;6.570;2023-03-04T00:13:28;102602.75;;;5.46;100.00
20909;BME280;10614;53.198;6.570;2023-03-04T00:15:29;102589.69;;;5.46;100.00
20909;BME280;10614;53.198;6.570;2023-03-04T00:17:32;102594.03;;;5.47;99.67
20909;BME280;10614;53.198;6.570;2023-03-04T00:19:35;102590.56;;;5.49;100.00
20909;BME280;10614;53.198;6.570;2023-03-04T00:21:36;102587.94;;;5.46;99.95
20909;BME280;10614;53.198;6.570;2023-03-04T00:23:38;102586.22;;;5.47;100.00
20909;BME280;10614;53.198;6.570;2023-03-04T00:25:40;102591.47;;;5.52;100.00
20909;BME280;10614;53.198;6.570;2023-03-04T00:27:42;102584.50;;;5.49;99.57
20909;BME280;10614;53.198;6.570;2023-03-04T00:29:44;102584.50;;;5.50;99.57
20909;BME280;10614;53.198;6.570;2023-03-04T00:31:49;102589.72;;;5.49;100.00
20909;BME280;10614;53.198;6.570;2023-03-04T00:33:53;102583.59;;;5.47;100.00
20909;BME280;10614;53.198;6.570;2023-03-04T00:35:55;102580.13;;;5.49;100.00
20909;BME280;10614;53.198;6.570;2023-03-04T00:37:56;102580.13;;;5.46;100.00
20909;BME280;10614;53.198;6.570;2023-03-04T00:39:58;102585.31;;;5.45;100.00
20909;BME280;10614;53.198;6.570;2023-03-04T00:42:00;102573.13;;;5.44;100.00
20909;BME280;10614;53.198;6.570;2023-03-04T00:44:01;102564.44;;;5.43;100.00
20909;BME280;10614;53.198;6.570;2023-03-04T00:46:03;102562.69;;;5.44;100.00
20909;BME280;10614;53.198;6.570;2023-03-04T00:48:06;102561.81;;;5.43;100.00
20909;BME280;10614;53.198;6.570;2023-03-04T00:50:10;102564.44;;;5.43;100.00
20909;BME280;10614;53.198;6.570;2023-03-04T00:52:12;102560.94;;;5.47;100.00
20909;BME280;10614;53.198;6.570;2023-03-04T00:54:14;102570.53;;;5.47;100.00
20909;BME280;10614;53.198;6.570;2023-03-04T00:56:15;102565.28;;;5.45;100.00
20909;BME280;10614;53.198;6.570;2023-03-04T00:58:17;102567.03;;;5.45;100.00
20909;BME280;10614;53.198;6.570;2023-03-04T01:00:19;102561.84;;;5.49;100.00
20909;BME280;10614;53.198;6.570;2023-03-04T01:02:21;102561.84;;;5.46;100.00
20909;BME280;10614;53.198;6.570;2023-03-04T01:04:23;102567.91;;;5.45;100.00
20909;BME280;10614;53.198;6.570;2023-03-04T01:06:29;102564.44;;;5.43;100.00
20909;BME280;10614;53.198;6.570;2023-03-04T01:08:31;102565.28;;;5.42;100.00
20909;BME280;10614;53.198;6.570;2023-03-04T01:10:32;102568.72;;;5.40;100.00
20909;BME280;10614;53.198;6.570;2023-03-04T01:12:34;102559.16;;;5.40;100.00
20909;BME280;10614;53.198;6.570;2023-03-04T01:14:37;102560.03;;;5.39;100.00
20909;BME280;10614;53.198;6.570;2023-03-04T01:16:39;102561.75;;;5.37;100.00
20909;BME280;10614;53.198;6.570;2023-03-04T01:18:41;102560.00;;;5.38;100.00
20909;BME280;10614;53.198;6.570;2023-03-04T01:20:44;102561.78;;;5.39;100.00
20909;BME280;10614;53.198;6.570;2023-03-04T01:22:47;102560.91;;;5.40;100.00
20909;BME280;10614;53.198;6.570;2023-03-04T01:24:49;102560.00;;;5.36;100.00
20909;BME280;10614;53.198;6.570;2023-03-04T01:26:50;102550.38;;;5.34;100.00
20909;BME280;10614;53.198;6.570;2023-03-04T01:28:52;102553.84;;;5.31;100.00
20909;BME280;10614;53.198;6.570;2023-03-04T01:30:54;102554.72;;;5.30;100.00
20909;BME280;10614;53.198;6.570;2023-03-04T01:32:56;102552.09;;;5.28;100.00
20909;BME280;10614;53.198;6.570;2023-03-04T01:34:58;102554.72;;;5.30;100.00
20909;BME280;10614;53.198;6.570;2023-03-04T01:37:00;102540.78;;;5.28;100.00
20909;BME280;10614;53.198;6.570;2023-03-04T01:39:04;102536.44;;;5.27;100.00
20909;BME280;10614;53.198;6.570;2023-03-04T01:41:06;102545.97;;;5.25;100.00
20909;BME280;10614;53.198;6.570;2023-03-04T01:43:14;102530.31;;;5.25;100.00
20909;BME280;10614;53.198;6.570;2023-03-04T01:45:18;102525.94;;;5.24;100.00
20909;BME280;10614;53.198;6.570;2023-03-04T01:47:25;102530.31;;;5.25;100.00
20909;BME280;10614;53.198;6.570;2023-03-04T01:49:28;102530.31;;;5.25;100.00
20909;BME280;10614;53.198;6.570;2023-03-04T01:51:30;102525.97;;;5.25;100.00
20909;BME280;10614;53.198;6.570;2023-03-04T01:53:32;102525.03;;;5.22;100.00
20909;BME280;10614;53.198;6.570;2023-03-04T01:55:36;102514.56;;;5.19;100.00
20909;BME280;10614;53.198;6.570;2023-03-04T01:57:38;102513.69;;;5.17;100.00
20909;BME280;10614;53.198;6.570;2023-03-04T01:59:40;102517.16;;;5.16;100.00
20909;BME280;10614;53.198;6.570;2023-03-04T02:01:43;102514.50;;;5.11;100.00
20909;BME280;10614;53.198;6.570;2023-03-04T02:03:45;102514.50;;;5.13;100.00
20909;BME280;10614;53.198;6.570;2023-03-04T02:05:49;102513.66;;;5.11;100.00
20909;BME280;10614;53.198;6.570;2023-03-04T02:07:52;102513.63;;;5.12;100.00
20909;BME280;10614;53.198;6.570;2023-03-04T02:09:55;102503.19;;;5.12;100.00
20909;BME280;10614;53.198;6.570;2023-03-04T02:11:59;102505.81;;;5.11;100.00
20909;BME280;10614;53.198;6.570;2023-03-04T02:14:01;102498.84;;;5.08;100.00
20909;BME280;10614;53.198;6.570;2023-03-04T02:16:03;102504.91;;;5.08;100.00
20909;BME280;10614;53.198;6.570;2023-03-04T02:18:13;102500.53;;;5.07;100.00
20909;BME280;10614;53.198;6.570;2023-03-04T02:20:24;102493.59;;;5.10;100.00
20909;BME280;10614;53.198;6.570;2023-03-04T02:22:28;102496.22;;;5.10;100.00
20909;BME280;10614;53.198;6.570;2023-03-04T02:24:35;102497.97;;;5.12;100.00
20909;BME280;10614;53.198;6.570;2023-03-04T02:26:41;102493.66;;;5.14;100.00
20909;BME280;10614;53.198;6.570;2023-03-04T02:28:44;102495.41;;;5.15;100.00
20909;BME280;10614;53.198;6.570;2023-03-04T02:30:46;102497.13;;;5.15;100.00
20909;BME280;10614;53.198;6.570;2023-03-04T02:32:48;102488.44;;;5.14;100.00
20909;BME280;10614;53.198;6.570;2023-03-04T02:34:50;102491.06;;;5.16;100.00
20909;BME280;10614;53.198;6.570;2023-03-04T02:36:52;102481.50;;;5.16;100.00
20909;BME280;10614;53.198;6.570;2023-03-04T02:38:56;102483.22;;;5.17;100.00
20909;BME280;10614;53.198;6.570;2023-03-04T02:41:01;102479.75;;;5.17;100.00
20909;BME280;10614;53.198;6.570;2023-03-04T02:43:05;102481.50;;;5.18;100.00
20909;BME280;10614;53.198;6.570;2023-03-04T02:45:33;102470.19;;;5.19;100.00
20909;BME280;10614;53.198;6.570;2023-03-04T02:47:36;102471.06;;;5.18;100.00
20909;BME280;10614;53.198;6.570;2023-03-04T02:49:39;102486.78;;;5.22;100.00
20909;BME280;10614;53.198;6.570;2023-03-04T02:51:41;102461.53;;;5.23;100.00
20909;BME280;10614;53.198;6.570;2023-03-04T02:53:43;102475.47;;;5.25;100.00
20909;BME280;10614;53.198;6.570;2023-03-04T02:55:45;102471.97;;;5.23;100.00
20909;BME280;10614;53.198;6.570;2023-03-04T02:57:47;102463.28;;;5.22;100.00
20909;BME280;10614;53.198;6.570;2023-03-04T02:59:50;102470.25;;;5.25;100.00
20909;BME280;10614;53.198;6.570;2023-03-04T03:01:53;102466.78;;;5.24;100.00
20909;BME280;10614;53.198;6.570;2023-03-04T03:03:55;102461.56;;;5.27;100.00
20909;BME280;10614;53.198;6.570;2023-03-04T03:05:56;102468.53;;;5.28;100.00
20909;BME280;10614;53.198;6.570;2023-03-04T03:07:58;102453.75;;;5.27;100.00
20909;BME280;10614;53.198;6.570;2023-03-04T03:10:00;102458.94;;;5.26;100.00
20909;BME280;10614;53.198;6.570;2023-03-04T03:12:02;102465.03;;;5.25;100.00
20909;BME280;10614;53.198;6.570;2023-03-04T03:14:05;102449.31;;;5.22;100.00
20909;BME280;10614;53.198;6.570;2023-03-04T03:16:09;102451.13;;;5.24;100.00
20909;BME280;10614;53.198;6.570;2023-03-04T03:18:13;102456.34;;;5.24;100.00
20909;BME280;10614;53.198;6.570;2023-03-04T03:20:16;102454.56;;;5.23;100.00
20909;BME280;10614;53.198;6.570;2023-03-04T03:22:18;102451.97;;;5.23;100.00
20909;BME280;10614;53.198;6.570;2023-03-04T03:24:20;102445.88;;;5.23;100.00
20909;BME280;10614;53.198;6.570;2023-03-04T03:26:22;102440.63;;;5.21;100.00
20909;BME280;10614;53.198;6.570;2023-03-04T03:28:24;102438.03;;;5.23;100.00
20909;BME280;10614;53.198;6.570;2023-03-04T03:30:26;102438.06;;;5.24;100.00
20909;BME280;10614;53.198;6.570;2023-03-04T03:32:30;102438.94;;;5.25;100.00
20909;BME280;10614;53.198;6.570;2023-03-04T03:34:31;102432.84;;;5.24;100.00
20909;BME280;10614;53.198;6.570;2023-03-04T03:36:33;102437.19;;;5.25;100.00
20909;BME280;10614;53.198;6.570;2023-03-04T03:38:35;102433.72;;;5.25;100.00
20909;BME280;10614;53.198;6.570;2023-03-04T03:40:37;102432.84;;;5.24;100.00
20909;BME280;10614;53.198;6.570;2023-03-04T03:42:39;102431.97;;;5.25;100.00
20909;BME280;10614;53.198;6.570;2023-03-04T03:44:40;102425.88;;;5.25;100.00
20909;BME280;10614;53.198;6.570;2023-03-04T03:46:41;102430.22;;;5.26;100.00
20909;BME280;10614;53.198;6.570;2023-03-04T03:48:45;102435.47;;;5.27;100.00
20909;BME280;10614;53.198;6.570;2023-03-04T03:50:47;102431.13;;;5.28;100.00
20909;BME280;10614;53.198;6.570;2023-03-04T03:52:49;102428.50;;;5.31;100.00
20909;BME280;10614;53.198;6.570;2023-03-04T03:54:51;102417.19;;;5.29;100.00
20909;BME280;10614;53.198;6.570;2023-03-04T03:56:52;102415.47;;;5.31;100.00
20909;BME280;10614;53.198;6.570;2023-03-04T03:58:54;102421.56;;;5.30;100.00
20909;BME280;10614;53.198;6.570;2023-03-04T04:00:56;102431.13;;;5.29;100.00
20909;BME280;10614;53.198;6.570;2023-03-04T04:02:59;102427.63;;;5.29;100.00
20909;BME280;10614;53.198;6.570;2023-03-04T04:05:02;102429.38;;;5.30;100.00
20909;BME280;10614;53.198;6.570;2023-03-04T04:07:04;102419.81;;;5.31;100.00
20909;BME280;10614;53.198;6.570;2023-03-04T04:09:06;102426.78;;;5.30;100.00
20909;BME280;10614;53.198;6.570;2023-03-04T04:11:08;102432.00;;;5.30;100.00
20909;BME280;10614;53.198;6.570;2023-03-04T04:13:10;102423.28;;;5.28;100.00
20909;BME280;10614;53.198;6.570;2023-03-04T04:15:12;102425.88;;;5.28;100.00
20909;BME280;10614;53.198;6.570;2023-03-04T04:17:14;102425.00;;;5.29;100.00
20909;BME280;10614;53.198;6.570;2023-03-04T04:19:19;102426.75;;;5.28;100.00
20909;BME280;10614;53.198;6.570;2023-03-04T04:21:23;102421.53;;;5.27;100.00
20909;BME280;10614;53.198;6.570;2023-03-04T04:23:25;102416.31;;;5.27;100.00
20909;BME280;10614;53.198;6.570;2023-03-04T04:25:28;102416.31;;;5.28;100.00
20909;BME280;10614;53.198;6.570;2023-03-04T04:27:30;102411.97;;;5.29;100.00
20909;BME280;10614;53.198;6.570;2023-03-04T04:29:32;102414.56;;;5.27;100.00
20909;BME280;10614;53.198;6.570;2023-03-04T04:31:34;102414.56;;;5.27;100.00
20909;BME280;10614;53.198;6.570;2023-03-04T04:33:36;102414.59;;;5.31;100.00
20909;BME280;10614;53.198;6.570;2023-03-04T04:35:38;102411.97;;;5.31;100.00
20909;BME280;10614;53.198;6.570;2023-03-04T04:37:41;102418.94;;;5.30;100.00
20909;BME280;10614;53.198;6.570;2023-03-04T04:39:43;102420.69;;;5.31;100.00
20909;BME280;10614;53.198;6.570;2023-03-04T04:41:45;102413.75;;;5.32;100.00
20909;BME280;10614;53.198;6.570;2023-03-04T04:43:47;102417.19;;;5.29;100.00
20909;BME280;10614;53.198;6.570;2023-03-04T04:45:49;102404.13;;;5.29;100.00
20909;BME280;10614;53.198;6.570;2023-03-04T04:47:51;102415.47;;;5.29;100.00
20909;BME280;10614;53.198;6.570;2023-03-04T04:49:53;102410.22;;;5.28;100.00
20909;BME280;10614;53.198;6.570;2023-03-04T04:51:55;102408.47;;;5.28;100.00
20909;BME280;10614;53.198;6.570;2023-03-04T04:53:59;102409.34;;;5.27;100.00
20909;BME280;10614;53.198;6.570;2023-03-04T04:56:07;102407.59;;;5.26;100.00
20909;BME280;10614;53.198;6.570;2023-03-04T04:58:09;102407.59;;;5.25;100.00
20909;BME280;10614;53.198;6.570;2023-03-04T05:00:12;102407.59;;;5.25;100.00
20909;BME280;10614;53.198;6.570;2023-03-04T05:02:14;102402.34;;;5.23;100.00
20909;BME280;10614;53.198;6.570;2023-03-04T05:04:16;102409.34;;;5.26;100.00
20909;BME280;10614;53.198;6.570;2023-03-04T05:06:18;102402.34;;;5.23;100.00
20909;BME280;10614;53.198;6.570;2023-03-04T05:08:20;102408.47;;;5.25;100.00
20909;BME280;10614;53.198;6.570;2023-03-04T05:10:23;102406.72;;;5.23;100.00
20909;BME280;10614;53.198;6.570;2023-03-04T05:12:25;102398.00;;;5.24;100.00
20909;BME280;10614;53.198;6.570;2023-03-04T05:14:27;102405.00;;;5.25;100.00
20909;BME280;10614;53.198;6.570;2023-03-04T05:16:29;102408.44;;;5.24;100.00
20909;BME280;10614;53.198;6.570;2023-03-04T05:18:30;102399.72;;;5.22;100.00
20909;BME280;10614;53.198;6.570;2023-03-04T05:20:32;102404.97;;;5.20;100.00
20909;BME280;10614;53.198;6.570;2023-03-04T05:22:34;102402.34;;;5.20;100.00
20909;BME280;10614;53.198;6.570;2023-03-04T05:24:36;102403.19;;;5.18;100.00
20909;BME280;10614;53.198;6.570;2023-03-04T05:26:40;102411.03;;;5.18;100.00
20909;BME280;10614;53.198;6.570;2023-03-04T05:28:42;102403.16;;;5.15;100.00
20909;BME280;10614;53.198;6.570;2023-03-04T05:30:44;102403.19;;;5.16;100.00
20909;BME280;10614;53.198;6.570;2023-03-04T05:32:46;102404.03;;;5.17;100.00
20909;BME280;10614;53.198;6.570;2023-03-04T05:34:48;102411.00;;;5.16;100.00
20909;BME280;10614;53.198;6.570;2023-03-04T05:36:50;102410.09;;;5.11;100.00
20909;BME280;10614;53.198;6.570;2023-03-04T05:38:51;102406.59;;;5.09;100.00
20909;BME280;10614;53.198;6.570;2023-03-04T05:40:55;102397.88;;;5.04;100.00
20909;BME280;10614;53.198;6.570;2023-03-04T05:42:59;102399.59;;;5.02;100.00
20909;BME280;10614;53.198;6.570;2023-03-04T05:45:01;102403.91;;;4.98;100.00
20909;BME280;10614;53.198;6.570;2023-03-04T05:47:06;102406.53;;;5.03;100.00
20909;BME280;10614;53.198;6.570;2023-03-04T05:49:08;102401.28;;;4.98;100.00
20909;BME280;10614;53.198;6.570;2023-03-04T05:51:10;102399.59;;;5.02;100.00
20909;BME280;10614;53.198;6.570;2023-03-04T05:53:12;102410.00;;;5.00;100.00
20909;BME280;10614;53.198;6.570;2023-03-04T05:55:14;102403.97;;;5.04;100.00
20909;BME280;10614;53.198;6.570;2023-03-04T05:57:16;102397.84;;;5.02;100.00
20909;BME280;10614;53.198;6.570;2023-03-04T05:59:19;102398.72;;;5.03;100.00
20909;BME280;10614;53.198;6.570;2023-03-04T06:01:22;102396.09;;;5.03;100.00
20909;BME280;10614;53.198;6.570;2023-03-04T06:03:24;102383.06;;;5.03;100.00
20909;BME280;10614;53.198;6.570;2023-03-04T06:05:26;102391.78;;;5.06;100.00
20909;BME280;10614;53.198;6.570;2023-03-04T06:07:28;102390.03;;;5.05;100.00
20909;BME280;10614;53.198;6.570;2023-03-04T06:09:29;102395.28;;;5.07;100.00
20909;BME280;10614;53.198;6.570;2023-03-04T06:11:31;102405.69;;;5.05;100.00
20909;BME280;10614;53.198;6.570;2023-03-04T06:13:33;102397.00;;;5.06;100.00
20909;BME280;10614;53.198;6.570;2023-03-04T06:15:37;102390.91;;;5.04;100.00
20909;BME280;10614;53.198;6.570;2023-03-04T06:17:41;102398.75;;;5.06;100.00
20909;BME280;10614;53.198;6.570;2023-03-04T06:19:42;102406.59;;;5.07;100.00
20909;BME280;10614;53.198;6.570;2023-03-04T06:21:45;102406.59;;;5.07;100.00
20909;BME280;10614;53.198;6.570;2023-03-04T06:23:47;102400.50;;;5.07;100.00
20909;BME280;10614;53.198;6.570;2023-03-04T06:25:51;102413.53;;;5.07;100.00
20909;BME280;10614;53.198;6.570;2023-03-04T06:27:52;102408.31;;;5.07;100.00
20909;BME280;10614;53.198;6.570;2023-03-04T06:29:54;102408.31;;;5.04;100.00
20909;BME280;10614;53.198;6.570;2023-03-04T06:31:57;102417.88;;;5.03;100.00
20909;BME280;10614;53.198;6.570;2023-03-04T06:33:59;102423.09;;;5.02;100.00
20909;BME280;10614;53.198;6.570;2023-03-04T06:36:01;102423.09;;;5.02;100.00
20909;BME280;10614;53.198;6.570;2023-03-04T06:38:03;102409.13;;;4.97;100.00
20909;BME280;10614;53.198;6.570;2023-03-04T06:40:05;102417.78;;;4.96;100.00
20909;BME280;10614;53.198;6.570;2023-03-04T06:42:08;102412.59;;;4.94;100.00
20909;BME280;10614;53.198;6.570;2023-03-04T06:44:10;102416.06;;;4.95;100.00
20909;BME280;10614;53.198;6.570;2023-03-04T06:46:11;102412.59;;;4.94;100.00
20909;BME280;10614;53.198;6.570;2023-03-04T06:48:15;102410.84;;;4.95;100.00
20909;BME280;10614;53.198;6.570;2023-03-04T06:50:17;102409.97;;;4.96;100.00
20909;BME280;10614;53.198;6.570;2023-03-04T06:52:18;102416.06;;;4.96;100.00
20909;BME280;10614;53.198;6.570;2023-03-04T06:54:20;102407.38;;;4.97;100.00
20909;BME280;10614;53.198;6.570;2023-03-04T06:56:23;102410.88;;;4.99;100.00
20909;BME280;10614;53.198;6.570;2023-03-04T06:58:24;102406.56;;;5.01;100.00
20909;BME280;10614;53.198;6.570;2023-03-04T07:00:26;102413.47;;;5.01;100.00
20909;BME280;10614;53.198;6.570;2023-03-04T07:02:28;102421.34;;;5.02;100.00
20909;BME280;10614;53.198;6.570;2023-03-04T07:04:31;102417.00;;;5.04;100.00
20909;BME280;10614;53.198;6.570;2023-03-04T07:06:33;102408.31;;;5.05;100.00
20909;BME280;10614;53.198;6.570;2023-03-04T07:08:34;102410.94;;;5.07;100.00
20909;BME280;10614;53.198;6.570;2023-03-04T07:10:36;102421.41;;;5.12;100.00
20909;BME280;10614;53.198;6.570;2023-03-04T07:12:38;102420.56;;;5.14;100.00
20909;BME280;10614;53.198;6.570;2023-03-04T07:14:40;102423.16;;;5.13;100.00
20909;BME280;10614;53.198;6.570;2023-03-04T07:16:42;102426.66;;;5.15;100.00
20909;BME280;10614;53.198;6.570;2023-03-04T07:18:45;102436.25;;;5.16;100.00
20909;BME280;10614;53.198;6.570;2023-03-04T07:20:50;102431.00;;;5.11;100.00
20909;BME280;10614;53.198;6.570;2023-03-04T07:22:53;102423.13;;;5.08;100.00
20909;BME280;10614;53.198;6.570;2023-03-04T07:24:56;102434.44;;;5.08;100.00
20909;BME280;10614;53.198;6.570;2023-03-04T07:27:00;102430.97;;;5.08;100.00
20909;BME280;10614;53.198;6.570;2023-03-04T07:29:02;102427.44;;;5.01;100.00
20909;BME280;10614;53.198;6.570;2023-03-04T07:31:11;102426.53;;;4.99;100.00
20909;BME280;10614;53.198;6.570;2023-03-04T07:33:14;102426.53;;;5.01;100.00
20909;BME280;10614;53.198;6.570;2023-03-04T07:35:16;102431.75;;;4.99;100.00
20909;BME280;10614;53.198;6.570;2023-03-04T07:37:21;102440.47;;;5.01;100.00
20909;BME280;10614;53.198;6.570;2023-03-04T07:39:23;102443.97;;;5.02;100.00
20909;BME280;10614;53.198;6.570;2023-03-04T07:41:26;102438.75;;;5.03;100.00
20909;BME280;10614;53.198;6.570;2023-03-04T07:43:28;102436.16;;;5.03;100.00
20909;BME280;10614;53.198;6.570;2023-03-04T07:45:33;102441.41;;;5.08;100.00
20909;BME280;10614;53.198;6.570;2023-03-04T07:47:35;102437.94;;;5.09;100.00
20909;BME280;10614;53.198;6.570;2023-03-04T07:49:37;102435.34;;;5.14;100.00
20909;BME280;10614;53.198;6.570;2023-03-04T07:51:38;102441.47;;;5.17;100.00
20909;BME280;10614;53.198;6.570;2023-03-04T07:53:44;102438.88;;;5.19;100.00
20909;BME280;10614;53.198;6.570;2023-03-04T07:55:47;102446.72;;;5.22;100.00
20909;BME280;10614;53.198;6.570;2023-03-04T07:57:48;102451.09;;;5.23;100.00
20909;BME280;10614;53.198;6.570;2023-03-04T07:59:50;102451.97;;;5.25;100.00
20909;BME280;10614;53.198;6.570;2023-03-04T08:01:52;102463.28;;;5.24;100.00
20909;BME280;10614;53.198;6.570;2023-03-04T08:03:54;102456.31;;;5.23;100.00
20909;BME280;10614;53.198;6.570;2023-03-04T08:05:57;102458.94;;;5.23;100.00
20909;BME280;10614;53.198;6.570;2023-03-04T08:07:59;102457.16;;;5.20;100.00
20909;BME280;10614;53.198;6.570;2023-03-04T08:10:04;102457.16;;;5.20;100.00
20909;BME280;10614;53.198;6.570;2023-03-04T08:12:07;102461.47;;;5.15;100.00
20909;BME280;10614;53.198;6.570;2023-03-04T08:14:09;102452.72;;;5.10;100.00
20909;BME280;10614;53.198;6.570;2023-03-04T08:16:14;102463.19;;;5.15;100.00
20909;BME280;10614;53.198;6.570;2023-03-04T08:18:17;102457.09;;;5.14;100.00
20909;BME280;10614;53.198;6.570;2023-03-04T08:20:19;102460.59;;;5.15;100.00
20909;BME280;10614;53.198;6.570;2023-03-04T08:22:21;102458.88;;;5.17;100.00
20909;BME280;10614;53.198;6.570;2023-03-04T08:24:23;102470.19;;;5.16;100.00
20909;BME280;10614;53.198;6.570;2023-03-04T08:26:29;102467.56;;;5.17;100.00
20909;BME280;10614;53.198;6.570;2023-03-04T08:28:33;102460.63;;;5.18;100.00
20909;BME280;10614;53.198;6.570;2023-03-04T08:30:35;102464.09;;;5.18;100.00
20909;BME280;10614;53.198;6.570;2023-03-04T08:32:37;102465.00;;;5.22;100.00
20909;BME280;10614;53.198;6.570;2023-03-04T08:34:39;102468.50;;;5.25;100.00
20909;BME280;10614;53.198;6.570;2023-03-04T08:36:41;102469.41;;;5.29;100.00
20909;BME280;10614;53.198;6.570;2023-03-04T08:38:43;102466.78;;;5.29;100.00
20909;BME280;10614;53.198;6.570;2023-03-04T08:40:45;102460.72;;;5.33;100.00
20909;BME280;10614;53.198;6.570;2023-03-04T08:42:53;102463.34;;;5.32;100.00
20909;BME280;10614;53.198;6.570;2023-03-04T08:44:55;102464.22;;;5.34;100.00
20909;BME280;10614;53.198;6.570;2023-03-04T08:46:56;102477.31;;;5.38;100.00
20909;BME280;10614;53.198;6.570;2023-03-04T09:00:53;102475.53;;;5.36;100.00
20909;BME280;10614;53.198;6.570;2023-03-04T09:02:55;102481.66;;;5.36;100.00
20909;BME280;10614;53.198;6.570;2023-03-04T09:04:57;102480.78;;;5.37;100.00
20909;BME280;10614;53.198;6.570;2023-03-04T09:06:59;102477.31;;;5.40;100.00
20909;BME280;10614;53.198;6.570;2023-03-04T09:09:01;102474.75;;;5.41;100.00
20909;BME280;10614;53.198;6.570;2023-03-04T09:11:03;102482.56;;;5.43;100.00
20909;BME280;10614;53.198;6.570;2023-03-04T09:13:05;102479.09;;;5.45;100.00
20909;BME280;10614;53.198;6.570;2023-03-04T09:15:07;102468.69;;;5.47;100.00
20909;BME280;10614;53.198;6.570;2023-03-04T09:17:10;102467.84;;;5.51;100.00
20909;BME280;10614;53.198;6.570;2023-03-04T09:19:12;102480.03;;;5.54;100.00
20909;BME280;10614;53.198;6.570;2023-03-04T09:21:14;102474.81;;;5.54;100.00
20909;BME280;10614;53.198;6.570;2023-03-04T09:23:17;102481.78;;;5.55;100.00
20909;BME280;10614;53.198;6.570;2023-03-04T09:25:19;102483.53;;;5.56;100.00
20909;BME280;10614;53.198;6.570;2023-03-04T09:27:20;102482.69;;;5.58;100.00
20909;BME280;10614;53.198;6.570;2023-03-04T09:29:22;102489.66;;;5.59;100.00
20909;BME280;10614;53.198;6.570;2023-03-04T09:31:25;102489.63;;;5.56;100.00
20909;BME280;10614;53.198;6.570;2023-03-04T09:33:28;102486.16;;;5.56;100.00
20909;BME280;10614;53.198;6.570;2023-03-04T09:35:29;102492.22;;;5.55;100.00
20909;BME280;10614;53.198;6.570;2023-03-04T09:37:31;102490.50;;;5.57;100.00
20909;BME280;10614;53.198;6.570;2023-03-04T09:39:33;102507.03;;;5.54;100.00
20909;BME280;10614;53.198;6.570;2023-03-04T09:41:38;102489.66;;;5.58;100.00
20909;BME280;10614;53.198;6.570;2023-03-04T09:43:40;102487.03;;;5.58;100.00
20909;BME280;10614;53.198;6.570;2023-03-04T09:45:47;102479.22;;;5.58;100.00
20909;BME280;10614;53.198;6.570;2023-03-04T09:47:51;102485.28;;;5.57;100.00
20909;BME280;10614;53.198;6.570;2023-03-04T09:49:56;102478.34;;;5.59;100.00
20909;BME280;10614;53.198;6.570;2023-03-04T09:52:04;102485.31;;;5.61;100.00
20909;BME280;10614;53.198;6.570;2023-03-04T09:54:17;102481.84;;;5.64;100.00
20909;BME280;10614;53.198;6.570;2023-03-04T09:56:21;102493.22;;;5.69;100.00
20909;BME280;10614;53.198;6.570;2023-03-04T09:58:34;102484.53;;;5.73;100.00
20909;BME280;10614;53.198;6.570;2023-03-04T10:00:41;102486.28;;;5.77;100.00
20909;BME280;10614;53.198;6.570;2023-03-04T10:03:01;102488.06;;;5.80;100.00
20909;BME280;10614;53.198;6.570;2023-03-04T10:05:06;102481.13;;;5.83;100.00
20909;BME280;10614;53.198;6.570;2023-03-04T10:07:16;102487.22;;;5.85;100.00
20909;BME280;10614;53.198;6.570;2023-03-04T10:09:20;102487.22;;;5.87;100.00
20909;BME280;10614;53.198;6.570;2023-03-04T10:11:24;102492.47;;;5.85;100.00
20909;BME280;10614;53.198;6.570;2023-03-04T10:13:33;102498.50;;;5.83;100.00
20909;BME280;10614;53.198;6.570;2023-03-04T10:15:38;102482.81;;;5.80;100.00
20909;BME280;10614;53.198;6.570;2023-03-04T10:17:45;102492.41;;;5.82;100.00
20909;BME280;10614;53.198;6.570;2023-03-04T10:19:53;102494.19;;;5.83;100.00
20909;BME280;10614;53.198;6.570;2023-03-04T10:21:58;102485.47;;;5.84;100.00
20909;BME280;10614;53.198;6.570;2023-03-04T10:24:04;102487.22;;;5.85;100.00
20909;BME280;10614;53.198;6.570;2023-03-04T10:26:12;102489.84;;;5.88;100.00
20909;BME280;10614;53.198;6.570;2023-03-04T10:28:16;102495.09;;;5.90;100.00
20909;BME280;10614;53.198;6.570;2023-03-04T10:30:25;102486.38;;;5.89;100.00
20909;BME280;10614;53.198;6.570;2023-03-04T10:32:31;102486.38;;;5.89;100.00
20909;BME280;10614;53.198;6.570;2023-03-04T10:34:32;102495.09;;;5.91;100.00
20909;BME280;10614;53.198;6.570;2023-03-04T10:36:50;102489.03;;;5.94;100.00
20909;BME280;10614;53.198;6.570;2023-03-04T10:38:57;102490.75;;;5.93;100.00
20909;BME280;10614;53.198;6.570;2023-03-04T10:40:59;102493.38;;;5.93;100.00
20909;BME280;10614;53.198;6.570;2023-03-04T10:43:02;102489.91;;;5.95;100.00
20909;BME280;10614;53.198;6.570;2023-03-04T10:45:20;102495.97;;;5.93;100.00
20909;BME280;10614;53.198;6.570;2023-03-04T10:47:22;102502.97;;;5.95;100.00
20909;BME280;10614;53.198;6.570;2023-03-04T10:49:25;102492.53;;;5.95;100.00
20909;BME280;10614;53.198;6.570;2023-03-04T10:51:28;102481.19;;;5.94;100.00
20909;BME280;10614;53.198;6.570;2023-03-04T10:53:32;102494.28;;;5.96;100.00
20909;BME280;10614;53.198;6.570;2023-03-04T10:55:44;102482.09;;;5.99;100.00